Time;durP1;ratioP1;P1;durP2;ratioP2;P2;SDS_P1;SDS_P2;PMS_P1;PMS_P2;Temp;Humidity;BMP_temperature;BMP_pressure;BME280_temperature;BME280_humidity;BME280_pressure;Samples;Min_cycle;Max_cycle;Signal;HPM_P1;HPM_P2
2023/04/22 07:12:44;;;;;;;;;50.00;39.00;;;;;10.14;72.91;100148.03;6225604;22;45616;-75
2023/04/22 07:15:10;;;;;;;;;49.50;37.50;;;;;10.12;72.63;100133.94;6245694;22;45266;-74
2023/04/22 07:17:35;;;;;;;;;52.50;41.50;;;;;10.21;69.17;100153.44;6245923;22;45496;-74
2023/04/22 07:20:00;;;;;;;;;50.25;39.25;;;;;10.25;73.17;100155.28;6245950;22;47120;-75
2023/04/22 07:22:26;;;;;;;;;50.50;40.50;;;;;10.26;73.71;100162.31;6243607;22;45323;-74
2023/04/22 07:24:51;;;;;;;;;50.75;42.25;;;;;10.21;73.47;100137.59;6245783;22;45223;-75
2023/04/22 07:27:16;;;;;;;;;48.25;39.00;;;;;10.30;73.67;100153.59;6245712;22;47051;-73
2023/04/22 07:29:42;;;;;;;;;53.25;42.00;;;;;10.39;73.22;100155.50;6247099;22;46191;-73
2023/04/22 07:32:08;;;;;;;;;49.00;35.50;;;;;10.30;68.74;100129.81;6247153;22;45151;-73
2023/04/22 07:34:33;;;;;;;;;52.25;40.00;;;;;10.39;71.84;100152.88;6245776;22;45244;-73
2023/04/22 07:36:59;;;;;;;;;53.00;40.00;;;;;10.22;74.36;100114.69;6246772;22;45165;-72
2023/04/22 07:39:24;;;;;;;;;52.25;43.00;;;;;10.45;73.11;100147.66;6246625;22;45358;-73
2023/04/22 07:41:50;;;;;;;;;49.00;40.00;;;;;10.53;71.52;100139.84;6245515;22;45239;-73
2023/04/22 07:44:20;;;;;;;;;47.00;35.75;;;;;10.47;75.19;100118.59;6244577;22;45181;-73
2023/04/22 07:46:45;;;;;;;;;46.75;38.00;;;;;10.71;74.01;100149.78;6246191;22;45282;-74
2023/04/22 07:49:12;;;;;;;;;46.75;36.25;;;;;10.68;71.25;100136.53;6246598;22;45276;-74
2023/04/22 07:51:38;;;;;;;;;48.25;37.75;;;;;10.72;71.52;100131.28;6244016;22;45261;-77
2023/04/22 07:54:04;;;;;;;;;44.00;36.00;;;;;10.73;74.27;100137.47;6244151;22;45230;-77
2023/04/22 07:56:29;;;;;;;;;52.00;39.50;;;;;10.89;73.58;100143.81;6246255;22;45202;-77
2023/04/22 07:58:55;;;;;;;;;41.25;36.50;;;;;10.89;73.07;100126.19;6246219;22;46648;-77
2023/04/22 08:01:20;;;;;;;;;41.50;35.75;;;;;10.92;73.19;100115.69;6245766;22;45231;-78
2023/04/22 08:03:45;;;;;;;;;44.50;37.25;;;;;11.15;75.02;100157.38;6243817;22;45472;-77
2023/04/22 08:06:11;;;;;;;;;51.50;39.00;;;;;11.18;73.37;100152.13;6244313;22;45654;-77
2023/04/22 08:08:36;;;;;;;;;41.75;35.00;;;;;11.09;72.70;100121.16;6247546;22;46347;-77
2023/04/22 08:11:01;;;;;;;;;46.00;38.25;;;;;11.18;70.21;100120.38;6247866;22;45345;-76
2023/04/22 08:13:27;;;;;;;;;44.25;36.25;;;;;11.22;69.38;100137.16;6268448;22;45216;-76
2023/04/22 08:15:52;;;;;;;;;50.50;40.25;;;;;11.17;72.96;100137.09;6281824;22;45300;-77
2023/04/22 08:18:17;;;;;;;;;40.75;34.75;;;;;11.22;73.44;100134.53;6279645;22;45975;-76
2023/04/22 08:20:43;;;;;;;;;45.25;38.75;;;;;11.41;74.54;100155.91;6278796;22;45292;-76
2023/04/22 08:23:09;;;;;;;;;40.25;35.00;;;;;11.48;72.25;100158.59;6278352;22;45323;-74
2023/04/22 08:25:35;;;;;;;;;109.00;97.67;;;;;11.54;73.15;100162.22;6278972;22;45316;-73
2023/04/22 08:28:00;;;;;;;;;66.25;50.50;;;;;11.57;73.46;100159.59;6277823;22;45917;-72
2023/04/22 08:30:25;;;;;;;;;51.00;40.50;;;;;11.54;73.17;100145.41;6278809;22;45263;-72
2023/04/22 08:32:52;;;;;;;;;42.00;34.75;;;;;11.71;69.11;100172.09;6278533;22;45276;-73
2023/04/22 08:35:18;;;;;;;;;46.25;37.75;;;;;11.70;72.73;100165.88;6277951;22;45368;-75
2023/04/22 08:37:43;;;;;;;;;40.25;35.75;;;;;11.65;72.69;100149.09;6278195;22;45141;-74
2023/04/22 08:40:09;;;;;;;;;41.25;36.50;;;;;11.72;72.82;100150.91;6278262;22;45183;-74
2023/04/22 08:42:35;;;;;;;;;48.25;39.00;;;;;11.86;72.20;100164.31;6277221;22;45205;-74
2023/04/22 08:45:04;;;;;;;;;47.75;39.25;;;;;11.70;71.25;100146.47;6250294;22;46884;-72
2023/04/22 08:47:33;;;;;;;;;53.00;43.25;;;;;11.84;70.02;100161.59;6277912;22;45368;-71
2023/04/22 08:50:02;;;;;;;;;54.25;43.00;;;;;11.94;68.24;100172.31;6278212;22;45226;-71
2023/04/22 08:52:29;;;;;;;;;59.00;45.00;;;;;11.84;69.81;100158.94;6278159;22;45205;-72
2023/04/22 08:54:55;;;;;;;;;63.00;47.50;;;;;11.85;69.52;100159.88;6278646;22;45411;-75
2023/04/22 08:57:20;;;;;;;;;58.50;47.25;;;;;11.86;71.20;100182.84;6277713;22;45243;-74
2023/04/22 08:59:48;;;;;;;;;61.25;49.25;;;;;11.86;71.10;100186.38;6250911;22;45252;-74
2023/04/22 09:02:18;;;;;;;;;55.00;43.75;;;;;11.85;72.38;100189.00;6250569;22;45162;-74
2023/04/22 09:04:46;;;;;;;;;53.25;44.25;;;;;11.87;68.89;100197.84;6278478;22;45465;-74
2023/04/22 09:07:19;;;;;;;;;56.50;45.75;;;;;11.69;70.41;100181.78;6277883;22;45165;-74
2023/04/22 09:09:44;;;;;;;;;49.25;41.75;;;;;11.77;68.79;100199.50;6278440;22;44658;-74
2023/04/22 09:12:10;;;;;;;;;53.75;40.75;;;;;11.71;70.81;100196.81;6277778;22;45265;-74
2023/04/22 09:14:37;;;;;;;;;44.25;36.50;;;;;11.63;72.36;100202.00;6278410;22;45231;-74
2023/04/22 09:17:02;;;;;;;;;40.75;36.50;;;;;11.67;70.71;100215.28;6278237;22;45205;-78
2023/04/22 09:19:28;;;;;;;;;55.50;44.00;;;;;11.64;71.22;100208.19;6277214;22;45235;-75
2023/04/22 09:21:57;;;;;;;;;57.00;45.00;;;;;11.66;70.37;100217.03;6278142;22;45225;-75
2023/04/22 09:24:22;;;;;;;;;55.25;42.50;;;;;11.57;72.79;100199.31;6278105;22;45441;-75
2023/04/22 09:26:48;;;;;;;;;56.00;45.50;;;;;11.72;71.34;100221.50;6277660;22;47554;-75
2023/04/22 09:29:15;;;;;;;;;53.75;42.00;;;;;11.67;71.99;100196.75;6278414;22;45238;-75
2023/04/22 09:31:41;;;;;;;;;55.25;45.00;;;;;11.69;70.12;100209.13;6278096;22;45210;-75
2023/04/22 09:34:07;;;;;;;;;52.25;43.25;;;;;11.72;71.13;100217.09;6249577;22;46499;-75
2023/04/22 09:36:33;;;;;;;;;56.00;44.25;;;;;11.63;69.43;100202.00;6278230;22;45947;-75
2023/04/22 09:39:06;;;;;;;;;53.75;42.25;;;;;11.74;70.82;100219.78;6278281;22;45250;-75
2023/04/22 09:41:34;;;;;;;;;54.75;44.00;;;;;11.81;72.27;100226.88;6278163;22;45223;-75
2023/04/22 09:44:01;;;;;;;;;49.00;41.25;;;;;11.83;70.34;100233.09;6276927;22;45386;-75
2023/04/22 09:46:29;;;;;;;;;54.00;42.00;;;;;11.80;70.63;100243.66;6278074;22;45355;-76
2023/04/22 09:48:55;;;;;;;;;52.75;43.50;;;;;11.67;69.87;100226.75;6277603;22;45302;-77
2023/04/22 09:51:21;;;;;;;;;54.50;44.25;;;;;11.78;68.88;100248.03;6250542;22;45313;-76
2023/04/22 09:54:07;;;;;;;;;55.75;44.75;;;;;11.76;69.54;100250.69;6278387;22;45233;-76
2023/04/22 09:56:49;;;;;;;;;62.75;50.75;;;;;11.77;71.14;100257.75;6249512;22;47106;-77
2023/04/22 09:59:28;;;;;;;;;57.75;44.75;;;;;11.84;71.06;100264.88;6277767;22;45271;-76
2023/04/22 10:01:57;;;;;;;;;51.75;43.50;;;;;11.92;70.31;100264.09;6277931;22;45082;-76
2023/04/22 10:04:24;;;;;;;;;55.25;46.25;;;;;12.02;70.00;100277.47;6277828;22;45243;-76
2023/04/22 10:06:50;;;;;;;;;50.25;38.75;;;;;12.12;72.06;100277.53;6250327;22;45320;-76
2023/04/22 10:09:18;;;;;;;;;58.00;43.75;;;;;12.19;70.07;100274.97;6278345;22;45410;-76
2023/04/22 10:11:43;;;;;;;;;58.25;45.50;;;;;12.36;72.42;100282.19;6249407;22;44611;-77
2023/04/22 10:14:10;;;;;;;;;52.75;40.50;;;;;12.24;70.06;100249.41;6276772;22;45344;-74
2023/04/22 10:16:38;;;;;;;;;50.75;41.00;;;;;12.50;70.48;100277.91;6277293;22;45268;-74
2023/04/22 10:19:05;;;;;;;;;46.50;38.25;;;;;12.42;69.17;100272.53;6249493;22;45327;-73
2023/04/22 10:21:32;;;;;;;;;50.50;41.50;;;;;12.57;71.93;100286.78;6249843;22;45241;-73
2023/04/22 10:23:59;;;;;;;;;49.00;38.00;;;;;12.64;69.42;100288.63;6277914;22;45126;-74
2023/04/22 10:26:47;;;;;;;;;48.00;37.50;;;;;12.64;70.17;100293.91;6277330;22;45305;-73
2023/04/22 10:29:18;;;;;;;;;45.75;37.00;;;;;12.60;69.98;100298.28;6277590;22;45343;-74
2023/04/22 10:31:49;;;;;;;;;44.50;34.00;;;;;12.58;68.96;100283.28;6277691;22;45215;-73
2023/04/22 10:34:17;;;;;;;;;42.50;36.75;;;;;12.58;68.83;100272.66;6278166;22;45589;-73
2023/04/22 10:37:06;;;;;;;;;42.75;35.25;;;;;12.76;69.63;100296.66;6277516;22;45252;-72
2023/04/22 10:39:31;;;;;;;;;46.25;34.25;;;;;12.68;69.67;100271.84;6277841;22;45236;-74
2023/04/22 10:42:06;;;;;;;;;37.75;34.00;;;;;12.84;69.57;100300.25;6249572;22;45302;-74
2023/04/22 10:44:51;;;;;;;;;40.75;34.75;;;;;12.86;69.54;100295.84;6277809;22;45524;-73
2023/04/22 10:47:37;;;;;;;;;48.00;35.25;;;;;12.92;68.56;100287.03;6277566;22;45911;-73
2023/04/22 10:50:22;;;;;;;;;38.00;34.00;;;;;13.00;68.15;100298.59;6250023;22;45340;-73
2023/04/22 10:52:59;;;;;;;;;42.00;33.00;;;;;13.03;69.33;100311.00;6277225;22;45311;-73
2023/04/22 10:55:25;;;;;;;;;37.75;32.75;;;;;13.09;68.55;100311.03;6277443;22;45465;-73
2023/04/22 10:57:52;;;;;;;;;34.00;30.75;;;;;13.16;69.56;100303.13;6276805;22;45277;-75
2023/04/22 11:00:39;;;;;;;;;40.25;34.00;;;;;13.21;68.62;100297.81;6277838;22;45268;-73
2023/04/22 11:03:04;;;;;;;;;34.00;31.50;;;;;13.40;69.53;100320.06;6277876;22;45255;-74
2023/04/22 11:05:30;;;;;;;;;28.25;24.75;;;;;13.38;68.26;100309.44;6249990;22;47203;-74
2023/04/22 11:08:02;;;;;;;;;28.00;25.50;;;;;13.37;67.77;100315.63;6277338;22;45107;-74
2023/04/22 11:10:31;;;;;;;;;27.00;25.50;;;;;13.47;68.13;100332.50;6278030;22;45169;-73
2023/04/22 11:12:57;;;;;;;;;28.00;21.50;;;;;13.51;68.22;100334.28;6276454;22;45683;-73
2023/04/22 11:15:23;;;;;;;;;30.75;28.25;;;;;13.53;67.91;100332.53;6277694;22;45417;-74
2023/04/22 11:17:53;;;;;;;;;29.25;26.00;;;;;13.51;67.99;100326.31;6277642;22;45270;-74
2023/04/22 11:20:18;;;;;;;;;30.00;25.75;;;;;13.53;69.70;100318.38;6250681;22;45629;-74
2023/04/22 11:22:50;;;;;;;;;30.75;27.00;;;;;13.66;67.08;100339.66;6277505;22;45177;-74
2023/04/22 11:25:16;;;;;;;;;25.25;25.25;;;;;13.85;67.15;100351.25;6250017;22;45035;-73
2023/04/22 11:27:42;;;;;;;;;30.75;29.25;;;;;13.93;68.97;100339.78;6276686;22;45243;-74
2023/04/22 11:30:08;;;;;;;;;33.25;31.00;;;;;14.19;67.55;100355.78;6250171;22;45251;-73
2023/04/22 11:32:35;;;;;;;;;31.50;28.00;;;;;14.32;67.28;100363.78;6277700;22;45149;-73
2023/04/22 11:35:07;;;;;;;;;32.00;28.75;;;;;14.42;66.70;100353.16;6224416;22;45342;-73
2023/04/22 11:37:57;;;;;;;;;24.75;23.00;;;;;14.63;66.37;100357.66;6276979;22;46034;-74
2023/04/22 11:40:29;;;;;;;;;29.50;28.00;;;;;14.78;65.83;100360.31;6248985;22;45344;-74
2023/04/22 11:42:55;;;;;;;;;28.50;24.25;;;;;14.80;66.42;100347.03;6249102;22;45257;-73
2023/04/22 11:45:21;;;;;;;;;34.00;28.75;;;;;15.01;65.29;100360.31;6277437;22;45248;-73
2023/04/22 11:47:49;;;;;;;;;21.25;17.50;;;;;15.02;65.24;100369.19;6276573;22;45818;-73
2023/04/22 11:50:16;;;;;;;;;27.50;23.00;;;;;15.03;64.72;100368.31;6277511;22;45201;-73
2023/04/22 11:52:47;;;;;;;;;28.00;25.50;;;;;15.01;64.51;100376.28;6277307;22;45284;-73
2023/04/22 11:55:20;;;;;;;;;30.75;26.00;;;;;15.00;64.92;100370.06;6276989;22;45458;-73
2023/04/22 11:57:51;;;;;;;;;30.25;26.50;;;;;14.90;64.20;100362.09;6248285;22;47252;-74
2023/04/22 12:00:17;;;;;;;;;26.75;24.75;;;;;14.92;65.79;100381.59;6275212;22;45716;-73
2023/04/22 12:02:44;;;;;;;;;26.75;25.50;;;;;14.90;64.66;100394.03;6277421;22;45176;-73
2023/04/22 12:05:11;;;;;;;;;25.00;22.25;;;;;14.92;64.60;100390.47;6249625;22;46199;-73
2023/04/22 12:07:37;;;;;;;;;26.75;25.50;;;;;14.95;64.88;100398.47;6275556;22;46026;-73
2023/04/22 12:10:06;;;;;;;;;32.50;28.00;;;;;14.93;64.26;100397.59;6277155;22;45327;-74
2023/04/22 12:12:34;;;;;;;;;25.00;25.00;;;;;14.90;64.32;100407.31;6243991;22;45422;-74
2023/04/22 12:15:06;;;;;;;;;27.25;25.75;;;;;14.81;64.74;100402.00;6246060;22;45406;-75
2023/04/22 12:17:32;;;;;;;;;27.75;24.75;;;;;14.73;64.36;100400.25;6244617;22;45283;-76
2023/04/22 12:19:57;;;;;;;;;25.25;24.25;;;;;14.67;64.89;100408.19;6246354;22;45282;-76
2023/04/22 12:22:26;;;;;;;;;26.75;24.00;;;;;14.55;64.09;100409.06;6246365;22;45207;-75
2023/04/22 12:24:52;;;;;;;;;27.25;27.00;;;;;14.44;64.99;100413.44;6244561;22;45332;-74
2023/04/22 12:27:17;;;;;;;;;31.75;28.50;;;;;14.41;66.23;100431.19;6245450;22;45236;-75
2023/04/22 12:29:54;;;;;;;;;29.25;27.75;;;;;14.32;64.89;100426.72;6245954;22;44672;-75
2023/04/22 12:32:20;;;;;;;;;27.50;26.50;;;;;14.20;65.42;100429.31;6246454;22;45311;-75
2023/04/22 12:34:46;;;;;;;;;33.75;28.00;;;;;14.14;65.25;100426.66;6246301;22;45276;-74
2023/04/22 12:37:11;;;;;;;;;26.25;24.75;;;;;14.08;64.79;100425.72;6245438;22;46215;-75
2023/04/22 12:39:37;;;;;;;;;30.25;27.00;;;;;13.98;65.22;100420.41;6246200;22;45124;-74
2023/04/22 12:42:05;;;;;;;;;27.50;25.75;;;;;14.02;65.00;100431.03;6245511;22;45074;-75
2023/04/22 12:44:31;;;;;;;;;33.25;29.75;;;;;14.00;65.92;100432.81;6246441;22;45577;-75
2023/04/22 12:46:56;;;;;;;;;32.75;30.00;;;;;14.03;65.18;100432.84;6245795;22;46245;-74
2023/04/22 12:49:21;;;;;;;;;31.50;26.50;;;;;13.99;65.36;100419.50;6244355;22;45114;-74
2023/04/22 12:51:47;;;;;;;;;33.75;27.25;;;;;14.02;65.14;100423.06;6246077;22;45304;-74
2023/04/22 12:54:12;;;;;;;;;28.25;26.00;;;;;14.05;65.00;100419.53;6246114;22;45287;-74
2023/04/22 12:56:38;;;;;;;;;31.25;30.50;;;;;14.12;64.64;100424.00;6245598;22;45224;-74
2023/04/22 12:59:03;;;;;;;;;28.75;23.75;;;;;14.31;65.52;100447.13;6246236;22;45645;-74
2023/04/22 13:01:29;;;;;;;;;32.50;28.00;;;;;14.42;64.77;100427.63;6245523;22;45297;-74
2023/04/22 13:03:55;;;;;;;;;35.50;30.75;;;;;14.91;65.35;100449.94;6247315;22;45323;-74
2023/04/22 13:06:20;;;;;;;;;28.50;26.25;;;;;15.26;63.50;100437.50;6247065;22;45303;-73
2023/04/22 13:08:46;;;;;;;;;24.00;18.25;;;;;15.51;63.36;100431.25;6247354;22;45231;-74
2023/04/22 13:11:11;;;;;;;;;25.25;23.75;;;;;15.75;63.75;100440.13;6247054;22;45232;-74
2023/04/22 13:13:36;;;;;;;;;23.25;23.25;;;;;16.04;62.30;100445.34;6267959;22;45243;-74
2023/04/22 13:16:02;;;;;;;;;24.50;23.75;;;;;16.22;62.25;100452.41;6278403;22;45491;-74
2023/04/22 13:18:27;;;;;;;;;26.00;25.50;;;;;16.42;61.24;100445.19;6249366;22;45210;-74
2023/04/22 13:20:55;;;;;;;;;27.50;24.75;;;;;16.70;61.04;100451.25;6250596;22;45313;-74
2023/04/22 13:23:22;;;;;;;;;23.25;22.00;;;;;16.87;60.36;100444.94;6275729;22;45167;-73
2023/04/22 13:25:48;;;;;;;;;31.00;27.50;;;;;17.07;59.66;100450.13;6250384;22;47006;-74
2023/04/22 13:28:14;;;;;;;;;28.25;23.75;;;;;17.16;59.17;100445.59;6277347;22;45248;-74
2023/04/22 13:30:40;;;;;;;;;24.00;23.00;;;;;17.17;58.31;100439.38;6278187;22;45406;-74
2023/04/22 13:33:05;;;;;;;;;26.00;26.00;;;;;17.35;59.56;100445.44;6250147;22;45305;-74
2023/04/22 13:35:30;;;;;;;;;21.33;19.33;;;;;17.47;57.19;100433.75;6278501;22;46255;-73
2023/04/22 13:37:56;;;;;;;;;27.00;23.67;;;;;17.70;57.65;100447.78;6277954;22;45571;-74
2023/04/22 13:40:21;;;;;;;;;31.00;25.67;;;;;17.77;57.80;100436.09;6278506;22;45271;-74
2023/04/22 13:42:47;;;;;;;;;24.00;22.67;;;;;18.06;57.71;100437.56;6276412;22;45512;-74
2023/04/22 13:45:12;;;;;;;;;24.33;21.33;;;;;18.22;55.60;100439.16;6278014;22;45296;-74
2023/04/22 13:47:37;;;;;;;;;26.00;22.00;;;;;18.29;56.15;100440.00;6277693;22;45220;-74
2023/04/22 13:50:04;;;;;;;;;29.33;27.00;;;;;18.34;54.50;100439.03;6277623;22;45398;-74
2023/04/22 13:52:30;;;;;;;;;31.33;22.00;;;;;18.26;54.87;100413.25;6277907;22;45395;-74
2023/04/22 13:54:55;;;;;;;;;26.67;24.00;;;;;18.38;55.90;100438.97;6249205;22;45268;-74
2023/04/22 13:57:21;;;;;;;;;21.00;19.00;;;;;18.38;56.75;100430.94;6277293;22;45137;-74
2023/04/22 13:59:48;;;;;;;;;23.33;22.00;;;;;18.41;55.75;100421.09;6278647;22;45372;-74
2023/04/22 14:02:13;;;;;;;;;25.67;23.67;;;;;18.45;54.69;100417.44;6277089;22;45330;-74
2023/04/22 14:04:39;;;;;;;;;24.33;20.33;;;;;18.61;55.84;100419.91;6278241;22;45293;-74
2023/04/22 14:07:05;;;;;;;;;27.33;24.33;;;;;18.69;54.26;100410.84;6278169;22;45253;-75
2023/04/22 14:09:31;;;;;;;;;21.33;20.00;;;;;18.66;54.53;100397.53;6278405;22;45454;-74
2023/04/22 14:11:56;;;;;;;;;21.33;20.00;;;;;18.83;54.08;100420.50;6276872;22;45369;-75
2023/04/22 14:14:22;;;;;;;;;26.00;24.00;;;;;18.70;54.45;100411.72;6250816;22;45258;-74
2023/04/22 14:16:47;;;;;;;;;22.67;19.67;;;;;18.63;53.60;100416.31;6250275;22;45266;-74
2023/04/22 14:19:13;;;;;;;;;21.67;20.00;;;;;18.60;53.53;100405.66;6278234;22;45177;-75
2023/04/22 14:21:39;;;;;;;;;22.33;19.67;;;;;18.69;53.86;100418.00;6277382;22;45450;-74
2023/04/22 14:24:04;;;;;;;;;22.00;20.00;;;;;18.66;54.83;100402.00;6277427;22;47635;-74
2023/04/22 14:26:31;;;;;;;;;24.00;20.00;;;;;18.54;52.11;100392.31;6277358;22;45141;-75
2023/04/22 14:28:57;;;;;;;;;19.67;19.67;;;;;18.52;53.83;100391.50;6276774;22;45442;-75
2023/04/22 14:31:23;;;;;;;;;19.00;19.00;;;;;18.60;54.77;100394.94;6249789;22;45874;-75
2023/04/22 14:33:49;;;;;;;;;16.33;16.33;;;;;18.78;53.29;100408.06;6277651;22;45230;-75
2023/04/22 14:36:16;;;;;;;;;17.00;15.00;;;;;18.73;52.46;100375.06;6224248;22;45288;-75
2023/04/22 14:38:41;;;;;;;;;12.00;12.00;;;;;18.92;51.96;100410.53;6277954;22;45280;-75
2023/04/22 14:41:07;;;;;;;;;12.33;12.33;;;;;18.84;50.97;100396.38;6277523;22;45274;-75
2023/04/22 14:43:33;;;;;;;;;15.67;14.00;;;;;18.90;53.46;100398.94;6277292;22;45214;-75
2023/04/22 14:45:59;;;;;;;;;11.33;11.00;;;;;18.99;52.64;100390.78;6277899;22;45417;-75
2023/04/22 14:48:28;;;;;;;;;14.33;14.33;;;;;18.98;51.80;100380.94;6277847;22;45186;-74
2023/04/22 14:50:54;;;;;;;;;14.00;12.00;;;;;19.17;52.04;100380.66;6278111;22;45279;-75
2023/04/22 14:53:19;;;;;;;;;11.67;11.00;;;;;19.36;51.46;100390.13;6277670;22;45272;-75
2023/04/22 14:55:45;;;;;;;;;12.33;11.00;;;;;19.52;50.88;100389.81;6278016;22;45632;-75
2023/04/22 14:58:10;;;;;;;;;12.67;11.00;;;;;19.56;52.81;100375.47;6277580;22;45292;-74
2023/04/22 15:00:36;;;;;;;;;10.00;10.00;;;;;19.65;50.42;100380.63;6278163;22;45300;-75
2023/04/22 15:03:02;;;;;;;;;9.33;9.33;;;;;19.73;50.36;100372.47;6277145;22;46184;-75
2023/04/22 15:05:27;;;;;;;;;13.67;12.00;;;;;19.87;49.72;100379.31;6249926;22;45205;-75
2023/04/22 15:07:53;;;;;;;;;10.00;9.00;;;;;19.98;48.18;100381.78;6277705;22;45166;-75
2023/04/22 15:10:19;;;;;;;;;10.00;8.67;;;;;19.98;50.54;100363.00;6250250;22;45784;-75
2023/04/22 15:12:44;;;;;;;;;10.00;9.00;;;;;20.07;48.66;100368.16;6277080;22;45315;-75
2023/04/22 15:15:14;;;;;;;;;10.67;9.00;;;;;19.89;47.46;100345.31;6277504;22;45173;-75
2023/04/22 15:17:40;;;;;;;;;9.00;9.00;;;;;19.93;49.47;100355.97;6277035;22;45275;-75
2023/04/22 15:20:07;;;;;;;;;8.67;8.67;;;;;19.89;49.37;100369.44;6277783;22;45260;-75
2023/04/22 15:22:33;;;;;;;;;8.33;8.33;;;;;19.84;48.85;100375.81;6247706;22;45675;-75
2023/04/22 15:24:58;;;;;;;;;9.33;9.00;;;;;19.64;48.82;100358.31;6250223;22;45191;-75
2023/04/22 15:27:24;;;;;;;;;8.33;8.33;;;;;19.63;45.62;100371.72;6277408;22;45229;-75
2023/04/22 15:29:50;;;;;;;;;8.00;8.00;;;;;19.52;46.87;100354.97;6275795;22;45486;-74
2023/04/22 15:32:15;;;;;;;;;8.67;8.00;;;;;19.55;46.22;100361.19;6224866;22;45425;-75
2023/04/22 15:34:41;;;;;;;;;5.00;5.00;;;;;19.55;46.72;100360.25;6278664;22;45180;-74
2023/04/22 15:37:06;;;;;;;;;7.00;7.00;;;;;19.52;46.45;100363.91;6280035;22;45221;-75
2023/04/22 15:39:32;;;;;;;;;8.00;8.00;;;;;19.55;47.12;100369.22;6278758;22;45216;-75
2023/04/22 15:41:57;;;;;;;;;6.00;6.00;;;;;19.53;45.44;100372.84;6277050;22;45185;-75
2023/04/22 15:44:22;;;;;;;;;7.33;7.33;;;;;19.55;46.22;100397.81;6277850;22;45377;-74
2023/04/22 15:46:50;;;;;;;;;8.33;6.67;;;;;19.47;45.59;100394.41;6276431;22;45252;-76
2023/04/22 15:49:16;;;;;;;;;7.33;7.33;;;;;19.45;45.70;100381.91;6277376;22;45241;-74
2023/04/22 15:51:42;;;;;;;;;9.00;9.00;;;;;19.49;45.45;100390.75;6275645;22;45390;-75
2023/04/22 15:54:07;;;;;;;;;7.33;7.33;;;;;19.50;45.47;100386.31;6276952;22;45315;-74
2023/04/22 15:56:33;;;;;;;;;6.67;6.67;;;;;19.55;44.54;100401.41;6277450;22;45166;-77
2023/04/22 15:58:59;;;;;;;;;6.67;6.67;;;;;19.60;44.50;100387.88;6277572;22;45195;-75
2023/04/22 16:01:24;;;;;;;;;8.00;8.00;;;;;19.61;45.16;100397.72;6277107;22;45159;-74
2023/04/22 16:03:49;;;;;;;;;11.00;9.00;;;;;19.54;44.33;100399.59;6277196;22;45264;-76
2023/04/22 16:06:16;;;;;;;;;9.00;7.67;;;;;19.48;44.22;100401.53;6277539;22;45100;-74
2023/04/22 16:08:43;;;;;;;;;7.67;7.67;;;;;19.38;44.49;100406.16;6277761;22;45237;-75
2023/04/22 16:11:08;;;;;;;;;8.67;8.67;;;;;19.33;44.83;100403.59;6249496;22;45681;-74
2023/04/22 16:13:33;;;;;;;;;5.67;5.67;;;;;19.21;45.12;100398.41;6276142;22;45232;-74
2023/04/22 16:15:59;;;;;;;;;8.33;7.67;;;;;19.17;44.64;100404.75;6250188;22;45245;-75
2023/04/22 16:18:25;;;;;;;;;7.33;7.33;;;;;19.05;44.81;100391.59;6277343;22;45311;-75
2023/04/22 16:20:51;;;;;;;;;6.67;5.67;;;;;19.09;44.66;100412.03;6275965;22;45340;-74
2023/04/22 16:23:17;;;;;;;;;7.67;6.67;;;;;18.95;44.54;100390.84;6277061;22;45264;-75
2023/04/22 16:25:43;;;;;;;;;11.00;9.67;;;;;18.99;43.76;100412.19;6277436;22;45229;-75
2023/04/22 16:28:09;;;;;;;;;14.00;11.67;;;;;18.88;43.56;100405.25;6276728;22;45154;-75
2023/04/22 16:30:34;;;;;;;;;7.00;7.00;;;;;18.75;43.95;100393.84;6276271;22;45228;-75
2023/04/22 16:33:00;;;;;;;;;1.67;1.67;;;;;18.63;45.03;100381.50;6249033;22;45616;-75
2023/04/22 16:35:25;;;;;;;;;5.67;5.67;;;;;18.71;42.89;100394.78;6278989;22;45128;-76
2023/04/22 16:37:50;;;;;;;;;4.33;4.33;;;;;18.80;44.69;100391.09;6278583;22;45225;-75
2023/04/22 16:40:16;;;;;;;;;8.00;5.33;;;;;18.76;43.91;100391.16;6278792;22;46877;-76
2023/04/22 16:42:41;;;;;;;;;4.00;4.00;;;;;18.82;42.85;100411.59;6250325;22;45214;-75
2023/04/22 16:45:07;;;;;;;;;6.33;5.33;;;;;18.80;43.29;100408.06;6279017;22;45168;-77
2023/04/22 16:47:32;;;;;;;;;8.00;6.67;;;;;18.77;43.43;100408.09;6250167;22;47110;-77
2023/04/22 16:49:57;;;;;;;;;8.67;7.67;;;;;18.81;44.05;100403.56;6278762;22;45188;-75
2023/04/22 16:52:23;;;;;;;;;6.00;6.00;;;;;18.79;43.61;100395.56;6278481;22;45378;-75
2023/04/22 16:54:50;;;;;;;;;5.00;4.33;;;;;18.67;44.15;100382.34;6251046;22;45292;-77
2023/04/22 16:57:15;;;;;;;;;6.00;6.00;;;;;18.73;43.29;100401.84;6277775;22;45518;-76
2023/04/22 16:59:40;;;;;;;;;7.67;6.67;;;;;18.70;43.82;100407.25;6278934;22;45285;-77
2023/04/22 17:02:06;;;;;;;;;8.00;8.00;;;;;18.64;43.33;100404.69;6279195;22;55490;-77
2023/04/22 17:04:31;;;;;;;;;6.00;5.33;;;;;18.47;42.53;100377.28;6279838;22;51163;-77
2023/04/22 17:06:56;;;;;;;;;5.33;5.33;;;;;18.51;44.17;100390.63;6280111;22;45375;-76
2023/04/22 17:09:22;;;;;;;;;6.33;6.33;;;;;18.39;43.59;100377.38;6281417;22;48120;-77
2023/04/22 17:11:47;;;;;;;;;5.33;5.33;;;;;18.45;43.54;100384.44;6249523;22;54231;-76
2023/04/22 17:14:13;;;;;;;;;8.00;7.67;;;;;18.34;44.10;100376.56;6278338;22;45347;-77
2023/04/22 17:16:38;;;;;;;;;7.33;6.00;;;;;18.34;43.60;100390.84;6250629;22;45274;-76
2023/04/22 17:19:04;;;;;;;;;4.67;4.67;;;;;18.24;44.30;100382.97;6278624;22;46105;-76
2023/04/22 17:21:30;;;;;;;;;6.67;5.67;;;;;18.20;43.77;100390.13;6250571;22;45240;-76
2023/04/22 17:23:57;;;;;;;;;6.00;6.00;;;;;18.03;43.83;100360.94;6250993;22;45319;-77
2023/04/22 17:26:23;;;;;;;;;5.00;5.00;;;;;18.15;43.44;100391.09;6249814;22;45851;-77
2023/04/22 17:28:48;;;;;;;;;5.67;5.33;;;;;18.18;44.29;100405.34;6278561;22;45283;-76
2023/04/22 17:31:13;;;;;;;;;8.33;5.67;;;;;18.14;43.77;100405.41;6278417;22;45295;-77
2023/04/22 17:33:40;;;;;;;;;4.00;4.00;;;;;18.13;43.96;100400.97;6278491;22;45275;-74
2023/04/22 17:36:05;;;;;;;;;5.67;4.67;;;;;18.11;43.75;100409.00;6278382;22;45335;-76
2023/04/22 17:38:31;;;;;;;;;4.00;4.00;;;;;18.10;44.74;100405.44;6277976;22;46229;-75
2023/04/22 17:40:56;;;;;;;;;5.33;5.33;;;;;18.08;43.49;100404.56;6278699;22;45300;-77
2023/04/22 17:43:22;;;;;;;;;5.00;4.33;;;;;18.06;44.18;100403.72;6278020;22;45244;-75
2023/04/22 17:45:48;;;;;;;;;7.33;6.00;;;;;18.08;44.75;100412.59;6278435;22;45260;-76
2023/04/22 17:48:14;;;;;;;;;4.00;4.00;;;;;18.00;43.92;100408.25;6278698;22;46287;-75
2023/04/22 17:50:40;;;;;;;;;6.00;5.67;;;;;17.97;44.42;100409.16;6278750;22;45181;-75
2023/04/22 17:53:05;;;;;;;;;8.00;6.33;;;;;17.92;44.49;100408.31;6279467;22;45141;-76
2023/04/22 17:55:33;;;;;;;;;4.67;4.67;;;;;17.77;44.41;100396.00;6279450;22;45220;-75
2023/04/22 17:58:00;;;;;;;;;5.00;5.00;;;;;17.81;44.68;100415.59;6276431;22;46714;-74
2023/04/22 18:00:25;;;;;;;;;7.33;6.00;;;;;17.72;44.80;100415.66;6278554;22;45292;-75
2023/04/22 18:02:52;;;;;;;;;7.67;6.67;;;;;17.59;45.12;100418.50;6278232;22;45421;-75
2023/04/22 18:05:18;;;;;;;;;8.00;7.00;;;;;17.45;45.46;100399.03;6286401;22;45051;-75
2023/04/22 18:07:43;;;;;;;;;5.00;5.00;;;;;17.45;45.80;100412.41;6282841;22;45236;-76
2023/04/22 18:10:09;;;;;;;;;6.33;6.33;;;;;17.32;46.07;100406.28;6278599;22;45240;-75
2023/04/22 18:12:34;;;;;;;;;7.33;7.33;;;;;17.31;46.44;100412.53;6278067;22;45488;-76
2023/04/22 18:15:00;;;;;;;;;6.33;6.33;;;;;17.19;46.20;100399.28;6278392;22;45224;-76
2023/04/22 18:17:25;;;;;;;;;5.67;5.67;;;;;17.17;46.57;100411.78;6278248;22;45168;-76
2023/04/22 18:19:52;;;;;;;;;8.33;6.33;;;;;17.18;47.44;100419.75;6278009;22;45516;-75
2023/04/22 18:22:18;;;;;;;;;7.67;7.67;;;;;17.06;47.16;100406.53;6278281;22;45217;-75
2023/04/22 18:24:43;;;;;;;;;11.67;7.67;;;;;17.09;47.14;100421.66;6278339;22;45276;-75